Форум клана ЧПУшников

Информация о пользователе

Привет, Гость! Войдите или зарегистрируйтесь.


Вы здесь » Форум клана ЧПУшников » Лазерные станки


Лазерные станки

Тем 1 страница 80 из 547

Тема Ответов Просмотров Последнее сообщение
603 12742 15-11-2019 09:30:41  Kuz
877 63266 24-10-2019 23:13:29  witamin
166 7478 14-03-2019 15:48:56  Vegas 52
70 4582 Вчера 01:19:35  anarxi
2 33 15-11-2019 18:31:48  koolobok
7 160 15-11-2019 10:09:43  Kuz
165 12033 15-11-2019 10:03:35  izostudia
224 22003 12-11-2019 19:44:38  Коснстантин
3 143 11-11-2019 10:35:48  Kuz
3 155 09-11-2019 20:41:41  vasa29
3 103 03-11-2019 22:24:39  stapelmoor
13 245 31-10-2019 12:30:02  Andy52280
4 114 29-10-2019 13:36:03  Andy52280
3 56 24-10-2019 20:55:44  Artem14717
1 35 21-10-2019 12:48:49  Kuz
3 78 20-10-2019 16:38:07  kartinka
6 89 18-10-2019 08:58:47  shatrovmaxim
4 1504 16-10-2019 00:31:27  Kenny
9 128 11-10-2019 11:13:41  shatrovmaxim
24 407 01-10-2019 16:22:23  ilya37rus
332 16629 01-10-2019 15:18:13  ilya37rus
206 9446 25-09-2019 16:37:52  adres
4 80 23-09-2019 16:55:57  adres
16 333 21-09-2019 13:50:03  ydav75
44 1180 21-09-2019 13:15:26  ydav75
10 287 21-09-2019 11:07:05  Борис Мишагин
2 70 19-09-2019 13:00:43  chirik
341 31205 19-09-2019 11:34:20  ilya37rus
8 292 17-09-2019 08:02:32  shatrovmaxim
16 579 09-09-2019 18:55:47  tonks
20 153 31-08-2019 11:26:41  valeribeglaryan
1 93 30-08-2019 01:45:31  ilya37rus
4 196 26-08-2019 21:46:47  Dandarrio
197 7122 26-08-2019 21:33:53  Dandarrio
7 153 26-08-2019 08:52:34  nevborisov26
12 262 19-08-2019 06:59:33  Kinetic
2 164 16-08-2019 15:19:26  ilya37rus
38 На ходу пропал луч.  Анатолий w38
3 95 16-08-2019 10:46:54  Andy52280
7 129 16-08-2019 06:23:10  serge78ss
1 94 14-08-2019 20:26:11  ilya37rus
2 122 13-08-2019 07:21:14  RD3
1 62 01-08-2019 17:14:40  Sanana
14 312 25-07-2019 18:15:23  jane
24 312 25-07-2019 10:26:34  Kuz
16 331 24-07-2019 12:28:25  Alex76
10 218 19-07-2019 12:54:43  Sanana
1 149 18-07-2019 22:39:57  Kirian
2 211 16-07-2019 16:16:36  sgluk
49 Мой Veno 503  mikhAN
96 2672 10-07-2019 17:59:24  mikhAN
3 122 05-07-2019 13:03:01  Andy52280
3 241 05-07-2019 10:30:50  qump
132 7629 03-07-2019 19:31:39  igordad
19 445 24-06-2019 13:29:16  igordad
12 267 06-06-2019 23:25:05  АндрейKosiv
2 185 03-06-2019 16:48:51  Andy52280
1 181 27-05-2019 02:42:37  ИгорьМ
9 247 25-05-2019 17:56:20  Dolflex
171 5306 24-05-2019 19:44:19  musicman3
283 10775 14-05-2019 07:57:39  esb
7 252 07-05-2019 13:02:02  Kuz
2 199 07-05-2019 12:59:07  Kuz
0 82 03-05-2019 09:57:22  Op023
12 323 02-05-2019 16:59:51  Fredi1903
236 22879 30-04-2019 12:06:13  miamifan91
65 контроллер TL-403  Алексей Степанов
5 138 29-04-2019 18:38:22  Сергеич
148 5196 16-04-2019 17:19:23  WandereR
4 206 10-04-2019 10:19:31  Kuz
37 1958 09-04-2019 22:53:04  musicman3
4 128 06-04-2019 10:49:10  Andy52280
121 4406 05-04-2019 09:04:27  esb
71 AutoLaser  yurk1151
35 1574 02-04-2019 21:52:42  scanwloker
0 128 30-03-2019 00:39:47  Vivan
6 208 24-03-2019 14:50:34  ptolik
56 2831 21-03-2019 15:06:08  vasa29
3 103 21-03-2019 02:52:19  ИгорьМ
23 1049 18-03-2019 10:05:01  Vegas 52
14 470 15-03-2019 11:08:09  Vegas 52
7 365 15-03-2019 10:55:38  Kuz
262 7656 07-03-2019 09:10:05  ilya37rus
14 324 06-03-2019 14:51:28  Kuz

Вы здесь » Форум клана ЧПУшников » Лазерные станки